Mc Kinney, Texas
Current Conditions -  °F | °C
As of 3:53 PM on Wednesday 22 Oct 2014 (Local Time) from KTKI Reporting Station
Broken Clouds Broken Clouds  
Wind Chill: 80°   Ceiling: 5500
Heat Index: 80°   Visibility: 10mi
Dew Point: 56°   Wind: 12mph
Humidity: 43%   Direction: 120°ESE
Pressure: 30.08"   Gusts: NA
Location:  33.1951°N, 96.6642°W
Report Text: KTKI 222053Z 12010KT 10SM BKN055 27/13 A3008 RMK AO2 SLP186 T02670133 56022
Loading
Personal Weather Stations






























Interactive Weather Map
Tropical Storm Tracking
New forecast layout! Learn more

10-Day Weather Forecast

Advertisements
Track Severe Weather on mobile